sensor_id;sensor_type;location;lat;lon;timestamp;P1;durP1;ratioP1;P2;durP2;ratioP2
20397;SDS011;10358;49.590;11.030;2022-09-09T00:04:26;2.33;;;1.30;;
20397;SDS011;10358;49.590;11.030;2022-09-09T00:07:19;5.07;;;1.60;;
20397;SDS011;10358;49.590;11.030;2022-09-09T00:16:25;5.47;;;1.50;;
20397;SDS011;10358;49.590;11.030;2022-09-09T00:21:31;7.30;;;1.60;;
20397;SDS011;10358;49.590;11.030;2022-09-09T00:23:59;5.27;;;1.30;;
20397;SDS011;10358;49.590;11.030;2022-09-09T00:26:36;2.07;;;1.10;;
20397;SDS011;10358;49.590;11.030;2022-09-09T00:31:53;5.30;;;1.27;;
20397;SDS011;10358;49.590;11.030;2022-09-09T00:34:22;3.13;;;1.50;;
20397;SDS011;10358;49.590;11.030;2022-09-09T00:36:51;7.20;;;1.27;;
20397;SDS011;10358;49.590;11.030;2022-09-09T00:39:27;1.57;;;1.30;;
20397;SDS011;10358;49.590;11.030;2022-09-09T00:44:36;4.27;;;1.30;;
20397;SDS011;10358;49.590;11.030;2022-09-09T00:47:16;5.47;;;1.40;;
20397;SDS011;10358;49.590;11.030;2022-09-09T00:55:27;1.90;;;1.30;;
20397;SDS011;10358;49.590;11.030;2022-09-09T00:57:57;8.97;;;1.50;;
20397;SDS011;10358;49.590;11.030;2022-09-09T01:05:43;3.20;;;1.20;;
20397;SDS011;10358;49.590;11.030;2022-09-09T01:08:20;5.30;;;1.60;;
20397;SDS011;10358;49.590;11.030;2022-09-09T01:11:07;5.47;;;1.83;;
20397;SDS011;10358;49.590;11.030;2022-09-09T01:13:42;2.80;;;1.67;;
20397;SDS011;10358;49.590;11.030;2022-09-09T01:16:11;7.27;;;2.17;;
20397;SDS011;10358;49.590;11.030;2022-09-09T01:18:43;5.97;;;2.93;;
20397;SDS011;10358;49.590;11.030;2022-09-09T01:24:30;7.07;;;1.93;;
20397;SDS011;10358;49.590;11.030;2022-09-09T01:27:01;5.20;;;1.90;;
20397;SDS011;10358;49.590;11.030;2022-09-09T01:29:29;7.30;;;1.60;;
20397;SDS011;10358;49.590;11.030;2022-09-09T01:31:59;6.60;;;1.90;;
20397;SDS011;10358;49.590;11.030;2022-09-09T01:34:36;2.57;;;1.20;;
20397;SDS011;10358;49.590;11.030;2022-09-09T01:37:05;4.27;;;1.30;;
20397;SDS011;10358;49.590;11.030;2022-09-09T01:39:34;5.13;;;1.30;;
20397;SDS011;10358;49.590;11.030;2022-09-09T01:42:01;2.70;;;1.40;;
20397;SDS011;10358;49.590;11.030;2022-09-09T01:44:29;3.83;;;1.30;;
20397;SDS011;10358;49.590;11.030;2022-09-09T01:46:56;4.77;;;1.33;;
20397;SDS011;10358;49.590;11.030;2022-09-09T01:49:22;1.97;;;1.20;;
20397;SDS011;10358;49.590;11.030;2022-09-09T01:51:49;2.70;;;1.30;;
20397;SDS011;10358;49.590;11.030;2022-09-09T01:54:18;2.67;;;1.20;;
20397;SDS011;10358;49.590;11.030;2022-09-09T02:02:18;3.83;;;1.73;;
20397;SDS011;10358;49.590;11.030;2022-09-09T02:04:49;4.13;;;1.70;;
20397;SDS011;10358;49.590;11.030;2022-09-09T02:07:22;2.90;;;1.50;;
20397;SDS011;10358;49.590;11.030;2022-09-09T02:12:39;6.17;;;1.70;;
20397;SDS011;10358;49.590;11.030;2022-09-09T02:15:11;4.73;;;1.50;;
20397;SDS011;10358;49.590;11.030;2022-09-09T02:17:49;2.47;;;1.50;;
20397;SDS011;10358;49.590;11.030;2022-09-09T02:20:17;5.10;;;1.53;;
20397;SDS011;10358;49.590;11.030;2022-09-09T02:22:44;8.00;;;1.80;;
20397;SDS011;10358;49.590;11.030;2022-09-09T02:25:14;6.30;;;1.50;;
20397;SDS011;10358;49.590;11.030;2022-09-09T02:27:43;2.63;;;1.40;;
20397;SDS011;10358;49.590;11.030;2022-09-09T02:30:11;5.33;;;1.77;;
20397;SDS011;10358;49.590;11.030;2022-09-09T02:32:37;2.50;;;1.57;;
20397;SDS011;10358;49.590;11.030;2022-09-09T02:35:08;3.37;;;1.20;;
20397;SDS011;10358;49.590;11.030;2022-09-09T02:37:37;3.33;;;1.20;;
20397;SDS011;10358;49.590;11.030;2022-09-09T02:40:05;6.93;;;1.50;;
20397;SDS011;10358;49.590;11.030;2022-09-09T02:42:32;2.23;;;1.20;;
20397;SDS011;10358;49.590;11.030;2022-09-09T02:45:08;3.07;;;1.33;;
20397;SDS011;10358;49.590;11.030;2022-09-09T02:47:37;2.03;;;1.00;;
20397;SDS011;10358;49.590;11.030;2022-09-09T02:50:13;4.77;;;1.40;;
20397;SDS011;10358;49.590;11.030;2022-09-09T02:57:54;6.07;;;1.47;;
20397;SDS011;10358;49.590;11.030;2022-09-09T03:00:25;1.53;;;1.20;;
20397;SDS011;10358;49.590;11.030;2022-09-09T03:02:52;3.77;;;1.23;;
20397;SDS011;10358;49.590;11.030;2022-09-09T03:05:19;5.37;;;1.27;;
20397;SDS011;10358;49.590;11.030;2022-09-09T03:07:45;7.60;;;1.30;;
20397;SDS011;10358;49.590;11.030;2022-09-09T03:10:11;3.87;;;1.30;;
20397;SDS011;10358;49.590;11.030;2022-09-09T03:12:37;6.77;;;1.70;;
20397;SDS011;10358;49.590;11.030;2022-09-09T03:15:03;2.80;;;1.47;;
20397;SDS011;10358;49.590;11.030;2022-09-09T03:17:29;7.50;;;1.47;;
20397;SDS011;10358;49.590;11.030;2022-09-09T03:19:55;3.77;;;1.70;;
20397;SDS011;10358;49.590;11.030;2022-09-09T03:22:23;4.77;;;1.60;;
20397;SDS011;10358;49.590;11.030;2022-09-09T03:24:50;5.10;;;1.30;;
20397;SDS011;10358;49.590;11.030;2022-09-09T03:27:16;3.83;;;1.33;;
20397;SDS011;10358;49.590;11.030;2022-09-09T03:29:43;4.57;;;1.40;;
20397;SDS011;10358;49.590;11.030;2022-09-09T03:32:09;5.93;;;1.50;;
20397;SDS011;10358;49.590;11.030;2022-09-09T03:34:35;3.70;;;1.60;;
20397;SDS011;10358;49.590;11.030;2022-09-09T03:37:04;3.20;;;1.60;;
20397;SDS011;10358;49.590;11.030;2022-09-09T03:39:30;3.87;;;1.50;;
20397;SDS011;10358;49.590;11.030;2022-09-09T03:41:56;3.13;;;1.83;;
20397;SDS011;10358;49.590;11.030;2022-09-09T03:44:21;5.07;;;1.50;;
20397;SDS011;10358;49.590;11.030;2022-09-09T03:46:47;4.90;;;1.57;;
20397;SDS011;10358;49.590;11.030;2022-09-09T03:49:12;3.10;;;1.47;;
20397;SDS011;10358;49.590;11.030;2022-09-09T03:51:38;3.77;;;1.40;;
20397;SDS011;10358;49.590;11.030;2022-09-09T03:54:04;2.53;;;1.30;;
20397;SDS011;10358;49.590;11.030;2022-09-09T03:56:33;3.67;;;1.20;;
20397;SDS011;10358;49.590;11.030;2022-09-09T03:58:59;2.60;;;1.27;;
20397;SDS011;10358;49.590;11.030;2022-09-09T04:01:25;3.23;;;1.50;;
20397;SDS011;10358;49.590;11.030;2022-09-09T04:03:50;3.13;;;1.50;;
20397;SDS011;10358;49.590;11.030;2022-09-09T04:06:17;2.17;;;1.47;;
20397;SDS011;10358;49.590;11.030;2022-09-09T04:08:42;2.47;;;1.20;;
20397;SDS011;10358;49.590;11.030;2022-09-09T04:11:08;5.63;;;1.63;;
20397;SDS011;10358;49.590;11.030;2022-09-09T04:13:35;2.97;;;1.50;;
20397;SDS011;10358;49.590;11.030;2022-09-09T04:16:03;2.77;;;1.53;;
20397;SDS011;10358;49.590;11.030;2022-09-09T04:18:29;3.90;;;1.67;;
20397;SDS011;10358;49.590;11.030;2022-09-09T04:20:55;5.53;;;1.60;;
20397;SDS011;10358;49.590;11.030;2022-09-09T04:23:22;6.00;;;1.60;;
20397;SDS011;10358;49.590;11.030;2022-09-09T04:25:52;4.80;;;2.10;;
20397;SDS011;10358;49.590;11.030;2022-09-09T04:28:20;3.60;;;1.50;;
20397;SDS011;10358;49.590;11.030;2022-09-09T04:30:47;6.60;;;1.67;;
20397;SDS011;10358;49.590;11.030;2022-09-09T04:33:13;3.50;;;1.70;;
20397;SDS011;10358;49.590;11.030;2022-09-09T04:35:39;4.53;;;1.60;;
20397;SDS011;10358;49.590;11.030;2022-09-09T04:38:13;5.00;;;1.80;;
20397;SDS011;10358;49.590;11.030;2022-09-09T04:40:41;4.13;;;1.73;;
20397;SDS011;10358;49.590;11.030;2022-09-09T04:43:14;4.03;;;1.40;;
20397;SDS011;10358;49.590;11.030;2022-09-09T04:45:41;2.70;;;1.50;;
20397;SDS011;10358;49.590;11.030;2022-09-09T04:48:07;4.50;;;1.80;;
20397;SDS011;10358;49.590;11.030;2022-09-09T04:50:34;4.97;;;1.77;;
20397;SDS011;10358;49.590;11.030;2022-09-09T04:53:01;4.13;;;1.90;;
20397;SDS011;10358;49.590;11.030;2022-09-09T04:55:27;6.07;;;1.90;;
20397;SDS011;10358;49.590;11.030;2022-09-09T04:57:52;4.10;;;1.80;;
20397;SDS011;10358;49.590;11.030;2022-09-09T05:00:18;4.80;;;1.90;;
20397;SDS011;10358;49.590;11.030;2022-09-09T05:02:44;4.10;;;1.90;;
20397;SDS011;10358;49.590;11.030;2022-09-09T05:05:10;2.77;;;1.67;;
20397;SDS011;10358;49.590;11.030;2022-09-09T05:07:36;6.20;;;2.10;;
20397;SDS011;10358;49.590;11.030;2022-09-09T05:10:02;3.57;;;1.50;;
20397;SDS011;10358;49.590;11.030;2022-09-09T05:12:30;4.40;;;1.60;;
20397;SDS011;10358;49.590;11.030;2022-09-09T05:14:56;6.13;;;1.63;;
20397;SDS011;10358;49.590;11.030;2022-09-09T05:17:21;3.73;;;1.63;;
20397;SDS011;10358;49.590;11.030;2022-09-09T05:19:47;4.97;;;1.60;;
20397;SDS011;10358;49.590;11.030;2022-09-09T05:22:17;5.03;;;1.60;;
20397;SDS011;10358;49.590;11.030;2022-09-09T05:24:45;3.50;;;1.50;;
20397;SDS011;10358;49.590;11.030;2022-09-09T05:27:11;5.80;;;1.43;;
20397;SDS011;10358;49.590;11.030;2022-09-09T05:29:37;5.43;;;1.60;;
20397;SDS011;10358;49.590;11.030;2022-09-09T05:32:03;4.43;;;1.77;;
20397;SDS011;10358;49.590;11.030;2022-09-09T05:34:29;6.23;;;1.70;;
20397;SDS011;10358;49.590;11.030;2022-09-09T05:36:54;6.53;;;1.80;;
20397;SDS011;10358;49.590;11.030;2022-09-09T05:39:20;4.87;;;1.97;;
20397;SDS011;10358;49.590;11.030;2022-09-09T05:41:45;4.40;;;2.23;;
20397;SDS011;10358;49.590;11.030;2022-09-09T05:44:11;5.57;;;1.77;;
20397;SDS011;10358;49.590;11.030;2022-09-09T05:46:38;5.05;;;2.03;;
20397;SDS011;10358;49.590;11.030;2022-09-09T05:49:03;3.60;;;1.77;;
20397;SDS011;10358;49.590;11.030;2022-09-09T05:51:30;4.47;;;2.00;;
20397;SDS011;10358;49.590;11.030;2022-09-09T05:53:56;4.03;;;1.57;;
20397;SDS011;10358;49.590;11.030;2022-09-09T05:56:25;6.25;;;2.00;;
20397;SDS011;10358;49.590;11.030;2022-09-09T05:58:53;2.37;;;1.43;;
20397;SDS011;10358;49.590;11.030;2022-09-09T06:01:20;6.43;;;1.90;;
20397;SDS011;10358;49.590;11.030;2022-09-09T06:03:48;3.70;;;1.63;;
20397;SDS011;10358;49.590;11.030;2022-09-09T06:06:15;3.03;;;1.67;;
20397;SDS011;10358;49.590;11.030;2022-09-09T06:08:43;5.05;;;1.90;;
20397;SDS011;10358;49.590;11.030;2022-09-09T06:11:11;3.53;;;1.60;;
20397;SDS011;10358;49.590;11.030;2022-09-09T06:13:39;6.05;;;1.88;;
20397;SDS011;10358;49.590;11.030;2022-09-09T06:16:05;4.50;;;2.00;;
20397;SDS011;10358;49.590;11.030;2022-09-09T06:18:38;5.07;;;1.90;;
20397;SDS011;10358;49.590;11.030;2022-09-09T06:21:05;4.60;;;1.50;;
20397;SDS011;10358;49.590;11.030;2022-09-09T06:23:35;7.80;;;1.67;;
20397;SDS011;10358;49.590;11.030;2022-09-09T06:26:21;4.70;;;1.80;;
20397;SDS011;10358;49.590;11.030;2022-09-09T06:28:49;5.13;;;1.97;;
20397;SDS011;10358;49.590;11.030;2022-09-09T06:31:16;4.57;;;1.90;;
20397;SDS011;10358;49.590;11.030;2022-09-09T06:33:46;5.60;;;1.85;;
20397;SDS011;10358;49.590;11.030;2022-09-09T06:36:15;6.13;;;1.92;;
20397;SDS011;10358;49.590;11.030;2022-09-09T06:38:45;3.83;;;1.80;;
20397;SDS011;10358;49.590;11.030;2022-09-09T06:41:12;7.35;;;1.50;;
20397;SDS011;10358;49.590;11.030;2022-09-09T06:43:39;5.38;;;1.70;;
20397;SDS011;10358;49.590;11.030;2022-09-09T06:48:41;5.47;;;1.48;;
20397;SDS011;10358;49.590;11.030;2022-09-09T06:53:33;12.02;;;2.13;;
20397;SDS011;10358;49.590;11.030;2022-09-09T06:56:01;8.10;;;1.77;;
20397;SDS011;10358;49.590;11.030;2022-09-09T06:58:37;3.47;;;1.73;;
20397;SDS011;10358;49.590;11.030;2022-09-09T07:01:07;4.13;;;1.70;;
20397;SDS011;10358;49.590;11.030;2022-09-09T07:03:33;7.95;;;1.70;;
20397;SDS011;10358;49.590;11.030;2022-09-09T07:06:00;5.13;;;1.80;;
20397;SDS011;10358;49.590;11.030;2022-09-09T07:08:26;6.65;;;1.90;;
20397;SDS011;10358;49.590;11.030;2022-09-09T07:10:52;4.68;;;1.60;;
20397;SDS011;10358;49.590;11.030;2022-09-09T07:13:26;4.55;;;1.67;;
20397;SDS011;10358;49.590;11.030;2022-09-09T07:15:52;5.13;;;1.65;;
20397;SDS011;10358;49.590;11.030;2022-09-09T07:18:18;3.10;;;1.58;;
20397;SDS011;10358;49.590;11.030;2022-09-09T07:20:52;5.32;;;1.70;;
20397;SDS011;10358;49.590;11.030;2022-09-09T07:23:22;4.35;;;1.77;;
20397;SDS011;10358;49.590;11.030;2022-09-09T07:25:48;5.05;;;1.50;;
20397;SDS011;10358;49.590;11.030;2022-09-09T07:28:14;2.85;;;1.50;;
20397;SDS011;10358;49.590;11.030;2022-09-09T07:30:40;5.38;;;1.60;;
20397;SDS011;10358;49.590;11.030;2022-09-09T07:33:05;7.82;;;1.80;;
20397;SDS011;10358;49.590;11.030;2022-09-09T07:35:31;3.45;;;1.60;;
20397;SDS011;10358;49.590;11.030;2022-09-09T07:37:57;5.93;;;1.80;;
20397;SDS011;10358;49.590;11.030;2022-09-09T07:40:23;13.55;;;2.65;;
20397;SDS011;10358;49.590;11.030;2022-09-09T07:42:49;7.63;;;1.90;;
20397;SDS011;10358;49.590;11.030;2022-09-09T07:45:15;4.18;;;1.65;;
20397;SDS011;10358;49.590;11.030;2022-09-09T07:47:40;8.68;;;1.80;;
20397;SDS011;10358;49.590;11.030;2022-09-09T07:50:07;5.40;;;1.35;;
20397;SDS011;10358;49.590;11.030;2022-09-09T07:52:34;6.88;;;1.50;;
20397;SDS011;10358;49.590;11.030;2022-09-09T07:55:00;8.15;;;2.10;;
20397;SDS011;10358;49.590;11.030;2022-09-09T07:57:27;4.65;;;1.40;;
20397;SDS011;10358;49.590;11.030;2022-09-09T07:59:55;3.67;;;1.15;;
20397;SDS011;10358;49.590;11.030;2022-09-09T08:02:21;3.83;;;1.38;;
20397;SDS011;10358;49.590;11.030;2022-09-09T08:04:47;9.90;;;1.50;;
20397;SDS011;10358;49.590;11.030;2022-09-09T08:07:13;5.55;;;1.30;;
20397;SDS011;10358;49.590;11.030;2022-09-09T08:09:39;6.55;;;1.38;;
20397;SDS011;10358;49.590;11.030;2022-09-09T08:12:04;10.00;;;2.05;;
20397;SDS011;10358;49.590;11.030;2022-09-09T08:14:33;5.22;;;1.40;;
20397;SDS011;10358;49.590;11.030;2022-09-09T08:16:58;4.68;;;1.30;;
20397;SDS011;10358;49.590;11.030;2022-09-09T08:19:25;6.90;;;1.75;;
20397;SDS011;10358;49.590;11.030;2022-09-09T08:21:51;3.97;;;1.50;;
20397;SDS011;10358;49.590;11.030;2022-09-09T08:24:16;10.23;;;2.05;;
20397;SDS011;10358;49.590;11.030;2022-09-09T08:26:45;2.20;;;1.35;;
20397;SDS011;10358;49.590;11.030;2022-09-09T08:29:13;4.03;;;1.25;;
20397;SDS011;10358;49.590;11.030;2022-09-09T08:31:41;4.15;;;1.55;;
20397;SDS011;10358;49.590;11.030;2022-09-09T08:34:08;3.65;;;1.40;;
20397;SDS011;10358;49.590;11.030;2022-09-09T08:36:36;3.42;;;1.35;;
20397;SDS011;10358;49.590;11.030;2022-09-09T08:39:04;4.63;;;1.42;;
20397;SDS011;10358;49.590;11.030;2022-09-09T08:49:44;6.38;;;1.50;;
20397;SDS011;10358;49.590;11.030;2022-09-09T08:55:32;4.10;;;1.48;;
20397;SDS011;10358;49.590;11.030;2022-09-09T08:58:02;5.68;;;1.60;;
20397;SDS011;10358;49.590;11.030;2022-09-09T09:09:18;3.80;;;1.10;;
20397;SDS011;10358;49.590;11.030;2022-09-09T09:11:54;4.32;;;1.40;;
20397;SDS011;10358;49.590;11.030;2022-09-09T09:14:26;3.13;;;1.00;;
20397;SDS011;10358;49.590;11.030;2022-09-09T09:17:15;2.88;;;1.10;;
20397;SDS011;10358;49.590;11.030;2022-09-09T09:19:45;4.20;;;1.30;;
20397;SDS011;10358;49.590;11.030;2022-09-09T09:22:33;3.45;;;1.20;;
20397;SDS011;10358;49.590;11.030;2022-09-09T09:30:23;5.38;;;0.90;;
20397;SDS011;10358;49.590;11.030;2022-09-09T09:32:56;2.63;;;0.90;;
20397;SDS011;10358;49.590;11.030;2022-09-09T09:35:27;5.18;;;1.10;;
20397;SDS011;10358;49.590;11.030;2022-09-09T09:37:52;3.53;;;0.80;;
20397;SDS011;10358;49.590;11.030;2022-09-09T09:40:19;2.45;;;0.90;;
20397;SDS011;10358;49.590;11.030;2022-09-09T09:42:53;3.90;;;1.08;;
20397;SDS011;10358;49.590;11.030;2022-09-09T09:48:03;2.13;;;0.88;;
20397;SDS011;10358;49.590;11.030;2022-09-09T09:50:32;3.05;;;1.05;;
20397;SDS011;10358;49.590;11.030;2022-09-09T09:53:04;5.28;;;1.00;;
20397;SDS011;10358;49.590;11.030;2022-09-09T09:55:31;4.25;;;1.08;;
20397;SDS011;10358;49.590;11.030;2022-09-09T09:58:06;4.60;;;1.10;;
20397;SDS011;10358;49.590;11.030;2022-09-09T10:00:47;8.68;;;1.20;;
20397;SDS011;10358;49.590;11.030;2022-09-09T10:03:35;2.67;;;0.90;;
20397;SDS011;10358;49.590;11.030;2022-09-09T10:06:05;4.88;;;0.90;;
20397;SDS011;10358;49.590;11.030;2022-09-09T10:08:33;3.35;;;1.00;;
20397;SDS011;10358;49.590;11.030;2022-09-09T10:24:22;3.15;;;0.95;;
20397;SDS011;10358;49.590;11.030;2022-09-09T10:27:02;4.63;;;1.00;;
20397;SDS011;10358;49.590;11.030;2022-09-09T10:35:14;4.65;;;1.10;;
20397;SDS011;10358;49.590;11.030;2022-09-09T10:49:45;4.18;;;0.85;;
20397;SDS011;10358;49.590;11.030;2022-09-09T10:52:04;3.60;;;0.93;;
20397;SDS011;10358;49.590;11.030;2022-09-09T10:57:17;3.63;;;1.17;;
20397;SDS011;10358;49.590;11.030;2022-09-09T10:59:57;3.78;;;1.02;;
20397;SDS011;10358;49.590;11.030;2022-09-09T11:02:30;5.03;;;1.00;;
20397;SDS011;10358;49.590;11.030;2022-09-09T11:04:59;3.92;;;1.02;;
20397;SDS011;10358;49.590;11.030;2022-09-09T11:13:00;5.63;;;1.00;;
20397;SDS011;10358;49.590;11.030;2022-09-09T11:15:31;4.93;;;1.05;;
20397;SDS011;10358;49.590;11.030;2022-09-09T11:18:05;3.28;;;0.90;;
20397;SDS011;10358;49.590;11.030;2022-09-09T11:20:36;4.53;;;1.00;;
20397;SDS011;10358;49.590;11.030;2022-09-09T11:23:09;4.53;;;1.00;;
20397;SDS011;10358;49.590;11.030;2022-09-09T11:25:43;5.95;;;1.10;;
20397;SDS011;10358;49.590;11.030;2022-09-09T11:36:57;3.20;;;0.90;;
20397;SDS011;10358;49.590;11.030;2022-09-09T11:42:42;4.20;;;1.02;;
20397;SDS011;10358;49.590;11.030;2022-09-09T11:45:09;1.98;;;0.88;;
20397;SDS011;10358;49.590;11.030;2022-09-09T11:47:55;2.55;;;0.95;;
20397;SDS011;10358;49.590;11.030;2022-09-09T11:52:48;4.38;;;0.90;;
20397;SDS011;10358;49.590;11.030;2022-09-09T11:55:28;3.92;;;0.80;;
20397;SDS011;10358;49.590;11.030;2022-09-09T11:58:01;3.80;;;1.00;;
20397;SDS011;10358;49.590;11.030;2022-09-09T12:03:31;1.65;;;0.80;;
20397;SDS011;10358;49.590;11.030;2022-09-09T12:05:58;3.90;;;1.08;;
20397;SDS011;10358;49.590;11.030;2022-09-09T12:08:28;4.20;;;1.10;;
20397;SDS011;10358;49.590;11.030;2022-09-09T12:10:57;4.40;;;1.00;;
20397;SDS011;10358;49.590;11.030;2022-09-09T12:13:28;4.28;;;0.80;;
20397;SDS011;10358;49.590;11.030;2022-09-09T12:15:56;2.28;;;0.85;;
20397;SDS011;10358;49.590;11.030;2022-09-09T12:20:55;5.07;;;1.20;;
20397;SDS011;10358;49.590;11.030;2022-09-09T12:23:37;3.28;;;0.70;;
20397;SDS011;10358;49.590;11.030;2022-09-09T12:26:17;2.72;;;0.90;;
20397;SDS011;10358;49.590;11.030;2022-09-09T12:29:05;2.70;;;0.90;;
20397;SDS011;10358;49.590;11.030;2022-09-09T12:31:52;3.67;;;1.05;;
20397;SDS011;10358;49.590;11.030;2022-09-09T12:37:24;3.25;;;0.80;;
20397;SDS011;10358;49.590;11.030;2022-09-09T12:40:01;4.38;;;1.02;;
20397;SDS011;10358;49.590;11.030;2022-09-09T12:42:47;4.55;;;1.10;;
20397;SDS011;10358;49.590;11.030;2022-09-09T12:45:19;4.22;;;1.10;;
20397;SDS011;10358;49.590;11.030;2022-09-09T12:50:31;3.15;;;0.80;;
20397;SDS011;10358;49.590;11.030;2022-09-09T12:55:59;3.80;;;1.35;;
20397;SDS011;10358;49.590;11.030;2022-09-09T12:58:34;8.07;;;0.93;;
20397;SDS011;10358;49.590;11.030;2022-09-09T13:01:03;3.30;;;0.80;;
20397;SDS011;10358;49.590;11.030;2022-09-09T13:03:30;3.97;;;1.17;;
20397;SDS011;10358;49.590;11.030;2022-09-09T13:05:57;22.10;;;1.73;;
20397;SDS011;10358;49.590;11.030;2022-09-09T13:08:35;12.27;;;1.70;;
20397;SDS011;10358;49.590;11.030;2022-09-09T13:11:02;12.07;;;2.10;;
20397;SDS011;10358;49.590;11.030;2022-09-09T13:13:34;14.63;;;1.73;;
20397;SDS011;10358;49.590;11.030;2022-09-09T13:16:03;17.67;;;1.85;;
20397;SDS011;10358;49.590;11.030;2022-09-09T13:18:33;11.85;;;1.60;;
20397;SDS011;10358;49.590;11.030;2022-09-09T13:21:00;8.93;;;1.88;;
20397;SDS011;10358;49.590;11.030;2022-09-09T13:23:30;9.93;;;1.70;;
20397;SDS011;10358;49.590;11.030;2022-09-09T13:25:59;3.63;;;1.25;;
20397;SDS011;10358;49.590;11.030;2022-09-09T13:28:27;10.73;;;1.70;;
20397;SDS011;10358;49.590;11.030;2022-09-09T13:30:55;8.85;;;1.50;;
20397;SDS011;10358;49.590;11.030;2022-09-09T13:33:29;4.05;;;1.27;;
20397;SDS011;10358;49.590;11.030;2022-09-09T13:36:05;5.57;;;1.60;;
20397;SDS011;10358;49.590;11.030;2022-09-09T13:38:34;6.40;;;1.60;;
20397;SDS011;10358;49.590;11.030;2022-09-09T13:41:04;6.35;;;1.65;;
20397;SDS011;10358;49.590;11.030;2022-09-09T13:43:33;7.67;;;1.90;;
20397;SDS011;10358;49.590;11.030;2022-09-09T13:46:03;7.60;;;1.47;;
20397;SDS011;10358;49.590;11.030;2022-09-09T13:48:31;5.13;;;1.50;;
20397;SDS011;10358;49.590;11.030;2022-09-09T13:53:24;6.30;;;1.40;;
20397;SDS011;10358;49.590;11.030;2022-09-09T13:55:50;5.90;;;1.67;;
20397;SDS011;10358;49.590;11.030;2022-09-09T13:58:16;4.50;;;1.10;;
20397;SDS011;10358;49.590;11.030;2022-09-09T14:00:44;5.97;;;1.23;;
20397;SDS011;10358;49.590;11.030;2022-09-09T14:03:10;6.60;;;1.63;;
20397;SDS011;10358;49.590;11.030;2022-09-09T14:05:36;7.43;;;1.77;;
20397;SDS011;10358;49.590;11.030;2022-09-09T14:08:05;12.57;;;1.63;;
20397;SDS011;10358;49.590;11.030;2022-09-09T14:10:33;8.57;;;1.57;;
20397;SDS011;10358;49.590;11.030;2022-09-09T14:13:02;6.28;;;1.52;;
20397;SDS011;10358;49.590;11.030;2022-09-09T14:15:27;8.98;;;1.63;;
20397;SDS011;10358;49.590;11.030;2022-09-09T14:17:54;8.43;;;1.60;;
20397;SDS011;10358;49.590;11.030;2022-09-09T14:20:19;6.38;;;1.42;;
20397;SDS011;10358;49.590;11.030;2022-09-09T14:22:45;6.55;;;1.63;;
20397;SDS011;10358;49.590;11.030;2022-09-09T14:25:11;5.68;;;1.60;;
20397;SDS011;10358;49.590;11.030;2022-09-09T14:27:40;6.03;;;1.40;;
20397;SDS011;10358;49.590;11.030;2022-09-09T14:30:07;3.67;;;1.33;;
20397;SDS011;10358;49.590;11.030;2022-09-09T14:32:33;4.68;;;1.50;;
20397;SDS011;10358;49.590;11.030;2022-09-09T14:34:59;6.70;;;1.30;;
20397;SDS011;10358;49.590;11.030;2022-09-09T14:37:24;5.82;;;1.27;;
20397;SDS011;10358;49.590;11.030;2022-09-09T14:39:51;7.40;;;1.23;;
20397;SDS011;10358;49.590;11.030;2022-09-09T14:42:17;4.95;;;1.75;;
20397;SDS011;10358;49.590;11.030;2022-09-09T14:44:43;6.95;;;1.70;;
20397;SDS011;10358;49.590;11.030;2022-09-09T14:47:08;5.43;;;1.27;;
20397;SDS011;10358;49.590;11.030;2022-09-09T14:49:34;7.20;;;1.40;;
20397;SDS011;10358;49.590;11.030;2022-09-09T14:52:00;4.40;;;1.50;;
20397;SDS011;10358;49.590;11.030;2022-09-09T14:54:27;9.00;;;1.73;;
20397;SDS011;10358;49.590;11.030;2022-09-09T14:56:53;4.82;;;1.48;;
20397;SDS011;10358;49.590;11.030;2022-09-09T14:59:19;7.95;;;1.40;;
20397;SDS011;10358;49.590;11.030;2022-09-09T15:01:44;3.95;;;1.40;;
20397;SDS011;10358;49.590;11.030;2022-09-09T15:04:10;7.47;;;1.55;;
20397;SDS011;10358;49.590;11.030;2022-09-09T15:06:37;5.78;;;1.20;;
20397;SDS011;10358;49.590;11.030;2022-09-09T15:09:04;4.43;;;1.25;;
20397;SDS011;10358;49.590;11.030;2022-09-09T15:11:33;5.57;;;1.40;;
20397;SDS011;10358;49.590;11.030;2022-09-09T15:14:02;9.35;;;1.65;;
20397;SDS011;10358;49.590;11.030;2022-09-09T15:16:32;6.18;;;1.50;;
20397;SDS011;10358;49.590;11.030;2022-09-09T15:18:59;4.68;;;1.20;;
20397;SDS011;10358;49.590;11.030;2022-09-09T15:21:27;3.60;;;1.23;;
20397;SDS011;10358;49.590;11.030;2022-09-09T15:23:54;6.00;;;1.30;;
20397;SDS011;10358;49.590;11.030;2022-09-09T15:26:20;6.53;;;2.00;;
20397;SDS011;10358;49.590;11.030;2022-09-09T15:28:47;4.90;;;1.50;;
20397;SDS011;10358;49.590;11.030;2022-09-09T15:31:15;7.78;;;1.77;;
20397;SDS011;10358;49.590;11.030;2022-09-09T15:33:49;12.23;;;2.28;;
20397;SDS011;10358;49.590;11.030;2022-09-09T15:36:19;6.93;;;1.88;;
20397;SDS011;10358;49.590;11.030;2022-09-09T15:38:46;4.95;;;1.50;;
20397;SDS011;10358;49.590;11.030;2022-09-09T15:41:13;5.20;;;1.48;;
20397;SDS011;10358;49.590;11.030;2022-09-09T15:43:42;4.78;;;1.30;;
20397;SDS011;10358;49.590;11.030;2022-09-09T15:46:31;6.18;;;1.45;;
20397;SDS011;10358;49.590;11.030;2022-09-09T15:48:58;4.55;;;1.52;;
20397;SDS011;10358;49.590;11.030;2022-09-09T15:51:39;5.97;;;1.30;;
20397;SDS011;10358;49.590;11.030;2022-09-09T15:54:07;5.82;;;1.20;;
20397;SDS011;10358;49.590;11.030;2022-09-09T15:56:33;4.60;;;1.33;;
20397;SDS011;10358;49.590;11.030;2022-09-09T15:58:59;4.43;;;1.08;;
20397;SDS011;10358;49.590;11.030;2022-09-09T16:01:27;4.50;;;1.30;;
20397;SDS011;10358;49.590;11.030;2022-09-09T16:03:53;5.93;;;1.20;;
20397;SDS011;10358;49.590;11.030;2022-09-09T16:06:20;4.00;;;1.00;;
20397;SDS011;10358;49.590;11.030;2022-09-09T16:08:50;2.65;;;0.90;;
20397;SDS011;10358;49.590;11.030;2022-09-09T16:13:50;3.20;;;1.02;;
20397;SDS011;10358;49.590;11.030;2022-09-09T16:16:18;3.05;;;1.08;;
20397;SDS011;10358;49.590;11.030;2022-09-09T16:18:48;2.58;;;0.80;;
20397;SDS011;10358;49.590;11.030;2022-09-09T16:21:17;4.50;;;0.80;;
20397;SDS011;10358;49.590;11.030;2022-09-09T16:23:46;2.67;;;0.90;;
20397;SDS011;10358;49.590;11.030;2022-09-09T16:26:14;1.35;;;0.73;;
20397;SDS011;10358;49.590;11.030;2022-09-09T16:28:40;1.95;;;0.75;;
20397;SDS011;10358;49.590;11.030;2022-09-09T16:31:06;2.75;;;0.88;;
20397;SDS011;10358;49.590;11.030;2022-09-09T16:33:34;4.40;;;0.75;;
20397;SDS011;10358;49.590;11.030;2022-09-09T16:36:07;2.05;;;0.70;;
20397;SDS011;10358;49.590;11.030;2022-09-09T16:38:35;2.88;;;0.70;;
20397;SDS011;10358;49.590;11.030;2022-09-09T16:41:02;1.05;;;0.50;;
20397;SDS011;10358;49.590;11.030;2022-09-09T16:43:29;1.33;;;0.70;;
20397;SDS011;10358;49.590;11.030;2022-09-09T16:45:55;1.35;;;0.60;;
20397;SDS011;10358;49.590;11.030;2022-09-09T16:48:21;2.97;;;0.80;;
20397;SDS011;10358;49.590;11.030;2022-09-09T16:50:46;3.40;;;0.90;;
20397;SDS011;10358;49.590;11.030;2022-09-09T16:53:13;2.13;;;0.80;;
20397;SDS011;10358;49.590;11.030;2022-09-09T16:55:40;2.00;;;0.80;;
20397;SDS011;10358;49.590;11.030;2022-09-09T16:58:07;3.75;;;0.50;;
20397;SDS011;10358;49.590;11.030;2022-09-09T17:00:35;4.13;;;0.80;;
20397;SDS011;10358;49.590;11.030;2022-09-09T17:03:00;1.73;;;0.70;;
20397;SDS011;10358;49.590;11.030;2022-09-09T17:05:26;4.78;;;0.60;;
20397;SDS011;10358;49.590;11.030;2022-09-09T17:07:53;3.05;;;1.10;;
20397;SDS011;10358;49.590;11.030;2022-09-09T17:10:20;1.85;;;0.70;;
20397;SDS011;10358;49.590;11.030;2022-09-09T17:12:46;1.25;;;0.68;;
20397;SDS011;10358;49.590;11.030;2022-09-09T17:15:11;2.10;;;0.73;;